createdAt,value
2018-03-03T00:00:58.502Z,108.27
2018-03-03T00:03:25.980Z,91.77
2018-03-03T00:05:53.770Z,98.37
2018-03-03T00:08:21.521Z,107.00
2018-03-03T00:10:48.973Z,98.37
2018-03-03T00:13:16.469Z,117.07
2018-03-03T00:15:43.937Z,92.70
2018-03-03T00:18:11.441Z,82.70
2018-03-03T00:20:39.049Z,99.57
2018-03-03T00:23:06.532Z,93.80
2018-03-03T00:25:33.997Z,91.50
2018-03-03T00:28:01.466Z,96.30
2018-03-03T00:30:28.918Z,93.97
2018-03-03T00:32:56.425Z,95.40
2018-03-03T00:35:23.880Z,92.70
2018-03-03T00:37:51.326Z,94.13
2018-03-03T00:40:18.805Z,91.20
2018-03-03T00:42:46.257Z,106.40
2018-03-03T00:45:13.883Z,99.80
2018-03-03T00:47:41.328Z,93.60
2018-03-03T00:50:08.810Z,93.93
2018-03-03T00:52:36.802Z,89.83
2018-03-03T00:55:04.321Z,107.77
2018-03-03T00:57:31.843Z,91.80
2018-03-03T00:59:59.293Z,99.67
2018-03-03T01:02:26.744Z,111.23
2018-03-03T01:04:54.293Z,93.67
2018-03-03T01:07:21.752Z,100.77
2018-03-03T01:09:49.257Z,90.07
2018-03-03T01:12:16.748Z,92.27
2018-03-03T01:14:44.193Z,90.90
2018-03-03T01:17:11.701Z,101.90
2018-03-03T01:19:39.152Z,92.47
2018-03-03T01:22:07.117Z,97.30
2018-03-03T01:24:34.570Z,101.33
2018-03-03T01:27:02.018Z,99.23
2018-03-03T01:29:29.497Z,94.63
2018-03-03T01:31:56.958Z,101.60
2018-03-03T01:34:24.467Z,96.03
2018-03-03T01:36:51.917Z,104.17
2018-03-03T01:39:19.791Z,95.77
2018-03-03T01:41:47.323Z,104.03
2018-03-03T01:44:14.777Z,102.47
2018-03-03T01:46:42.460Z,102.50
2018-03-03T01:49:09.921Z,106.40
2018-03-03T01:51:42.300Z,100.47
2018-03-03T01:54:09.768Z,97.23
2018-03-03T01:56:37.213Z,90.63
2018-03-03T01:59:04.681Z,107.57
2018-03-03T02:01:32.146Z,105.80
2018-03-03T02:03:59.743Z,109.23
2018-03-03T02:06:27.201Z,98.43
2018-03-03T02:08:54.681Z,92.80
2018-03-03T02:11:22.148Z,99.17
2018-03-03T02:13:49.652Z,106.60
2018-03-03T02:16:17.490Z,99.27
2018-03-03T02:18:44.945Z,95.17
2018-03-03T02:21:12.397Z,103.50
2018-03-03T02:23:39.884Z,103.63
2018-03-03T02:26:07.725Z,97.60
2018-03-03T02:28:35.225Z,104.13
2018-03-03T02:31:02.678Z,110.40
2018-03-03T02:33:30.131Z,106.43
2018-03-03T02:35:57.625Z,99.50
2018-03-03T02:38:25.114Z,101.93
2018-03-03T02:40:52.806Z,97.87
2018-03-03T02:43:20.258Z,101.33
2018-03-03T02:45:47.719Z,99.07
2018-03-03T02:48:15.202Z,125.43
2018-03-03T02:50:42.679Z,103.13
2018-03-03T02:53:10.344Z,123.67
2018-03-03T02:55:37.793Z,108.83
2018-03-03T02:58:05.245Z,103.00
2018-03-03T03:00:32.876Z,98.13
2018-03-03T03:03:00.409Z,96.90
2018-03-03T03:05:27.903Z,107.27
2018-03-03T03:07:55.373Z,97.90
2018-03-03T03:10:22.841Z,105.00
2018-03-03T03:12:51.326Z,96.80
2018-03-03T03:15:18.793Z,99.47
2018-03-03T03:17:46.688Z,103.53
2018-03-03T03:20:14.137Z,94.93
2018-03-03T03:22:41.589Z,92.57
2018-03-03T03:25:09.066Z,106.83
2018-03-03T03:27:36.522Z,101.70
2018-03-03T03:30:04.004Z,101.10
2018-03-03T03:32:31.462Z,107.87
2018-03-03T03:34:58.924Z,91.30
2018-03-03T03:37:26.423Z,107.93
2018-03-03T03:39:53.873Z,94.73
2018-03-03T03:42:21.593Z,93.87
2018-03-03T03:44:49.057Z,97.10
2018-03-03T03:47:16.998Z,91.97
2018-03-03T03:49:44.490Z,92.47
2018-03-03T03:52:11.943Z,104.17
2018-03-03T03:54:39.749Z,104.93
2018-03-03T03:57:07.201Z,98.00
2018-03-03T03:59:34.806Z,97.57
2018-03-03T04:02:02.279Z,105.87
2018-03-03T04:04:29.749Z,94.20
2018-03-03T04:06:57.237Z,100.10
2018-03-03T04:09:24.689Z,105.50
2018-03-03T04:11:52.141Z,107.93
2018-03-03T04:14:19.609Z,104.90
2018-03-03T04:16:47.062Z,108.73
2018-03-03T04:19:14.795Z,113.13
2018-03-03T04:21:42.262Z,121.73
2018-03-03T04:24:09.707Z,99.33
2018-03-03T04:26:37.177Z,112.03
2018-03-03T04:29:04.644Z,102.33
2018-03-03T04:31:32.315Z,103.70
2018-03-03T04:34:00.038Z,96.57
2018-03-03T04:36:27.506Z,102.77
2018-03-03T04:38:54.986Z,103.90
2018-03-03T04:41:22.443Z,110.77
2018-03-03T04:43:50.078Z,114.57
2018-03-03T04:46:17.745Z,107.50
2018-03-03T04:48:45.196Z,101.17
2018-03-03T04:51:12.666Z,114.30
2018-03-03T04:53:40.126Z,106.77
2018-03-03T04:56:07.633Z,92.20
2018-03-03T05:01:57.145Z,106.83
2018-03-03T05:04:30.254Z,105.47
2018-03-03T05:09:59.626Z,108.43
2018-03-03T05:12:27.118Z,112.33
2018-03-03T05:14:56.137Z,111.30
2018-03-03T05:20:44.517Z,112.13
2018-03-03T05:23:17.716Z,117.67
2018-03-03T05:28:51.989Z,103.50
2018-03-03T05:34:27.358Z,97.93
2018-03-03T05:37:00.437Z,121.13
2018-03-03T05:42:34.368Z,107.23
2018-03-03T05:45:07.660Z,131.77
2018-03-03T05:47:37.549Z,105.80
2018-03-03T05:50:10.881Z,105.77
2018-03-03T05:55:46.901Z,116.90
2018-03-03T05:58:19.888Z,117.47
2018-03-03T06:03:59.537Z,123.23
2018-03-03T06:06:30.065Z,111.33
2018-03-03T06:11:57.285Z,117.30
2018-03-03T06:14:24.736Z,117.47
2018-03-03T06:16:52.230Z,134.13
2018-03-03T06:19:19.694Z,113.73
2018-03-03T06:21:47.209Z,115.67
2018-03-03T06:24:14.681Z,124.03
2018-03-03T06:26:42.133Z,125.90
2018-03-03T06:29:09.757Z,116.93
2018-03-03T06:31:37.220Z,119.07
2018-03-03T06:34:04.669Z,107.90
2018-03-03T06:36:32.168Z,105.30
2018-03-03T06:38:59.616Z,128.00
2018-03-03T06:41:27.525Z,118.20
2018-03-03T06:43:55.000Z,117.90
2018-03-03T06:46:22.454Z,126.07
2018-03-03T06:48:49.926Z,109.93
2018-03-03T06:51:17.421Z,127.93
2018-03-03T06:53:45.179Z,131.87
2018-03-03T06:56:13.026Z,119.00
2018-03-03T06:58:40.479Z,117.07
2018-03-03T07:01:07.948Z,109.33
2018-03-03T07:03:35.417Z,117.60
2018-03-03T07:06:03.032Z,120.73
2018-03-03T07:08:30.488Z,114.97
2018-03-03T07:10:57.963Z,137.87
2018-03-03T07:13:25.438Z,126.03
2018-03-03T07:15:52.889Z,112.53
2018-03-03T07:18:20.361Z,112.17
2018-03-03T07:20:47.816Z,131.40
2018-03-03T07:23:15.264Z,121.60
2018-03-03T07:25:42.737Z,133.37
2018-03-03T07:28:10.237Z,107.67
2018-03-03T07:30:37.968Z,114.00
2018-03-03T07:33:05.432Z,108.50
2018-03-03T07:35:33.174Z,123.57
2018-03-03T07:38:00.701Z,116.93
2018-03-03T07:40:28.178Z,115.07
2018-03-03T07:42:56.441Z,117.93
2018-03-03T07:45:23.909Z,126.93
2018-03-03T07:47:51.364Z,120.70
2018-03-03T07:50:18.833Z,129.43
2018-03-03T07:52:46.321Z,127.43
2018-03-03T07:55:13.806Z,114.97
2018-03-03T07:57:41.262Z,111.50
2018-03-03T08:00:08.757Z,114.47
2018-03-03T08:02:36.274Z,134.23
2018-03-03T08:05:03.705Z,131.13
2018-03-03T08:07:31.205Z,124.37
2018-03-03T08:09:58.677Z,127.27
2018-03-03T08:12:26.125Z,122.97
2018-03-03T08:14:53.594Z,114.07
2018-03-03T08:41:36.332Z,127.07
2018-03-03T08:44:03.809Z,113.30
2018-03-03T08:46:31.285Z,107.03
2018-03-03T08:48:58.769Z,104.93
2018-03-03T08:51:26.256Z,119.53
2018-03-03T08:53:53.949Z,111.77
2018-03-03T08:56:21.425Z,120.07
2018-03-03T08:58:48.892Z,115.57
2018-03-03T09:01:16.504Z,112.17
2018-03-03T09:03:43.981Z,117.67
2018-03-03T09:06:11.460Z,110.97
2018-03-03T09:08:38.913Z,114.93
2018-03-03T09:11:06.368Z,111.77
2018-03-03T09:13:33.841Z,109.77
2018-03-03T09:16:01.318Z,125.67
2018-03-03T09:18:29.061Z,113.80
2018-03-03T09:20:56.516Z,109.00
2018-03-03T09:23:23.970Z,112.93
2018-03-03T09:25:51.460Z,111.20
2018-03-03T09:28:18.914Z,100.33
2018-03-03T09:30:46.443Z,123.73
2018-03-03T09:35:02.157Z,104.13
2018-03-03T09:37:29.641Z,96.00
2018-03-03T09:39:57.560Z,108.23
2018-03-03T09:42:25.034Z,113.97
2018-03-03T09:44:52.505Z,111.70
2018-03-03T09:47:19.977Z,114.37
2018-03-03T09:50:32.245Z,115.87
2018-03-03T09:52:59.738Z,113.40
2018-03-03T09:55:27.193Z,107.53
2018-03-03T09:57:54.645Z,111.03
2018-03-03T10:00:22.113Z,107.13
2018-03-03T10:02:49.558Z,120.63
2018-03-03T10:05:17.217Z,107.37
2018-03-03T10:07:44.669Z,107.90
2018-03-03T10:10:12.117Z,104.20
2018-03-03T10:12:39.588Z,111.43
2018-03-03T10:15:07.069Z,112.70
2018-03-03T10:17:34.765Z,96.03
2018-03-03T10:20:02.217Z,101.13
2018-03-03T10:22:29.665Z,104.07
2018-03-03T10:24:57.149Z,109.33
2018-03-03T10:27:24.601Z,103.57
2018-03-03T10:29:52.125Z,108.83
2018-03-03T10:32:19.570Z,119.97
2018-03-03T10:34:47.019Z,117.63
2018-03-03T10:37:14.549Z,114.47
2018-03-03T10:39:42.023Z,104.67
2018-03-03T10:42:09.669Z,112.90
2018-03-03T10:44:37.134Z,116.70
2018-03-03T10:47:04.581Z,100.57
2018-03-03T10:49:32.052Z,126.23
2018-03-03T10:51:59.504Z,107.00
2018-03-03T10:54:27.002Z,101.23
2018-03-03T10:56:54.477Z,118.80
2018-03-03T10:59:21.952Z,104.50
2018-03-03T11:01:49.426Z,115.87
2018-03-03T11:04:16.890Z,134.37
2018-03-03T11:06:44.669Z,106.97
2018-03-03T11:09:12.129Z,109.50
2018-03-03T11:11:39.581Z,108.63
2018-03-03T11:14:07.073Z,100.27
2018-03-03T11:16:34.524Z,126.90
2018-03-03T11:19:02.138Z,113.50
2018-03-03T11:21:29.594Z,101.60
2018-03-03T11:23:57.044Z,108.03
2018-03-03T11:26:24.546Z,107.93
2018-03-03T11:28:51.993Z,107.30
2018-03-03T11:31:19.862Z,106.37
2018-03-03T11:33:47.318Z,117.13
2018-03-03T11:36:14.764Z,121.40
2018-03-03T11:38:42.245Z,127.53
2018-03-03T11:41:09.698Z,101.50
2018-03-03T11:43:37.168Z,108.10
2018-03-03T11:46:04.621Z,114.27
2018-03-03T11:48:32.072Z,113.57
2018-03-03T11:50:59.544Z,119.00
2018-03-03T11:53:26.994Z,122.23
2018-03-03T11:55:54.756Z,119.17
2018-03-03T11:58:22.210Z,111.60
2018-03-03T12:00:49.773Z,112.47
2018-03-03T12:03:17.257Z,111.20
2018-03-03T12:05:44.713Z,119.50
2018-03-03T12:08:12.205Z,128.83
2018-03-03T12:10:39.653Z,114.73
2018-03-03T12:13:07.113Z,112.00
2018-03-03T12:15:34.589Z,106.77
2018-03-03T12:18:02.041Z,112.53
2018-03-03T12:20:29.769Z,125.53
2018-03-03T12:22:57.234Z,110.37
2018-03-03T12:25:24.682Z,106.30
2018-03-03T12:27:52.152Z,108.73
2018-03-03T12:30:19.609Z,102.50
2018-03-03T12:32:47.313Z,102.23
2018-03-03T12:35:14.767Z,101.30
2018-03-03T12:37:42.217Z,112.00
2018-03-03T12:40:09.705Z,88.90
2018-03-03T12:42:37.153Z,107.07
2018-03-03T12:45:04.745Z,106.30
2018-03-03T12:47:32.210Z,100.77
2018-03-03T12:49:59.677Z,92.83
2018-03-03T12:52:27.160Z,106.93
2018-03-03T12:54:54.615Z,99.13
2018-03-03T12:57:22.311Z,96.20
2018-03-03T12:59:49.783Z,106.53
2018-03-03T13:02:17.231Z,101.63
2018-03-03T13:04:44.705Z,96.80
2018-03-03T13:07:12.153Z,107.50
2018-03-03T13:09:39.622Z,93.67
2018-03-03T13:12:07.066Z,86.20
2018-03-03T13:14:34.522Z,86.30
2018-03-03T13:17:01.985Z,85.17
2018-03-03T13:19:29.449Z,80.10
2018-03-03T13:21:57.230Z,87.77
2018-03-03T13:24:24.673Z,99.37
2018-03-03T13:26:52.125Z,84.07
2018-03-03T13:29:19.589Z,69.33
2018-03-03T13:31:47.063Z,84.53
2018-03-03T13:34:14.789Z,90.60
2018-03-03T13:36:42.233Z,104.47
2018-03-03T13:39:09.700Z,90.33
2018-03-03T13:41:37.161Z,97.23
2018-03-03T13:44:04.625Z,85.80
2018-03-03T13:46:32.114Z,81.93
2018-03-03T13:48:59.576Z,81.10
2018-03-03T13:51:27.020Z,95.17
2018-03-03T13:53:54.493Z,96.10
2018-03-03T13:56:21.933Z,79.73
2018-03-03T13:58:49.405Z,92.03
2018-03-03T14:01:16.857Z,99.33
2018-03-03T14:03:44.332Z,101.77
2018-03-03T14:06:11.805Z,83.63
2018-03-03T14:08:39.249Z,92.83
2018-03-03T14:11:06.877Z,85.47
2018-03-03T14:13:34.317Z,81.33
2018-03-03T14:16:01.764Z,100.80
2018-03-03T14:18:29.228Z,89.37
2018-03-03T14:20:56.677Z,100.30
2018-03-03T14:23:24.155Z,87.23
2018-03-03T14:25:51.666Z,100.40
2018-03-03T14:28:19.206Z,98.53
2018-03-03T14:30:46.674Z,86.00
2018-03-03T14:33:14.117Z,94.70
2018-03-03T14:35:41.815Z,98.80
2018-03-03T14:38:09.262Z,116.77
2018-03-03T14:40:37.632Z,93.63
2018-03-03T14:43:05.098Z,94.43
2018-03-03T14:45:32.558Z,102.23
2018-03-03T14:48:00.334Z,93.83
2018-03-03T14:50:27.795Z,90.13
2018-03-03T14:52:55.237Z,91.17
2018-03-03T14:55:22.701Z,97.10
2018-03-03T14:57:59.493Z,104.03
2018-03-03T15:00:26.977Z,99.63
2018-03-03T15:02:54.423Z,86.40
2018-03-03T15:05:21.894Z,92.57
2018-03-03T15:07:49.366Z,88.47
2018-03-03T15:10:16.853Z,104.83
2018-03-03T15:12:44.525Z,94.27
2018-03-03T15:15:11.973Z,88.40
2018-03-03T15:17:39.426Z,97.77
2018-03-03T15:20:06.923Z,86.83
2018-03-03T15:22:34.369Z,90.37
2018-03-03T15:25:01.857Z,96.70
2018-03-03T15:27:29.321Z,90.60
2018-03-03T15:29:56.777Z,92.50
2018-03-03T15:32:24.242Z,98.77
2018-03-03T15:34:51.691Z,91.00
2018-03-03T15:37:19.197Z,96.90
2018-03-03T15:39:46.732Z,91.00
2018-03-03T15:42:14.179Z,92.80
2018-03-03T15:44:41.677Z,101.57
2018-03-03T15:47:09.230Z,98.97
2018-03-03T15:49:36.706Z,86.63
2018-03-03T15:52:04.152Z,93.40
2018-03-03T15:54:31.597Z,88.37
2018-03-03T15:56:59.065Z,105.70
2018-03-03T15:59:26.526Z,90.83
2018-03-03T16:01:54.093Z,93.23
2018-03-03T16:04:21.541Z,96.13
2018-03-03T16:06:49.020Z,90.17
2018-03-03T16:09:16.499Z,100.53
2018-03-03T16:11:43.941Z,96.27
2018-03-03T16:14:11.658Z,99.47
2018-03-03T16:16:39.120Z,92.20
2018-03-03T16:19:06.631Z,82.23
2018-03-03T16:21:34.081Z,94.10
2018-03-03T16:24:01.530Z,89.73
2018-03-03T16:26:29.217Z,95.83
2018-03-03T16:28:56.665Z,103.00
2018-03-03T16:31:24.113Z,82.80
2018-03-03T16:33:51.585Z,88.33
2018-03-03T16:36:19.032Z,97.33
2018-03-03T16:38:46.533Z,98.10
2018-03-03T16:41:13.980Z,95.10
2018-03-03T16:43:41.459Z,100.87
2018-03-03T16:46:08.930Z,91.97
2018-03-03T16:48:36.374Z,89.60
2018-03-03T16:51:04.032Z,85.20
2018-03-03T16:53:31.476Z,83.47
2018-03-03T16:55:58.922Z,93.67
2018-03-03T16:58:26.389Z,85.13
2018-03-03T17:00:53.838Z,89.43
2018-03-03T17:03:21.341Z,85.30
2018-03-03T17:05:48.785Z,87.87
2018-03-03T17:08:16.225Z,84.03
2018-03-03T17:10:43.716Z,83.93
2018-03-03T17:13:11.181Z,76.87
2018-03-03T17:15:38.805Z,77.00
2018-03-03T17:18:06.259Z,84.20
2018-03-03T17:20:33.717Z,81.93
2018-03-03T17:23:01.189Z,91.17
2018-03-03T17:25:28.647Z,85.00
2018-03-03T17:27:56.365Z,87.70
2018-03-03T17:30:24.197Z,79.60
2018-03-03T17:32:51.652Z,95.43
2018-03-03T17:35:19.118Z,86.17
2018-03-03T17:37:46.560Z,87.00
2018-03-03T17:40:14.041Z,94.33
2018-03-03T17:42:41.486Z,96.63
2018-03-03T17:45:08.938Z,87.10
2018-03-03T17:47:36.406Z,90.20
2018-03-03T17:50:03.858Z,85.40
2018-03-03T17:52:31.390Z,80.83
2018-03-03T17:54:58.836Z,86.40
2018-03-03T17:57:26.281Z,87.13
2018-03-03T17:59:53.819Z,91.70
2018-03-03T18:02:21.273Z,101.10
2018-03-03T18:04:48.751Z,91.47
2018-03-03T18:07:16.219Z,87.87
2018-03-03T18:09:43.665Z,100.07
2018-03-03T18:12:11.137Z,96.93
2018-03-03T18:14:38.577Z,98.70
2018-03-03T18:17:06.053Z,87.17
2018-03-03T18:19:34.330Z,93.63
2018-03-03T18:22:01.781Z,96.43
2018-03-03T18:24:36.045Z,101.60
2018-03-03T18:27:03.489Z,98.47
2018-03-03T18:29:31.001Z,106.63
2018-03-03T18:31:58.456Z,92.50
2018-03-03T18:34:25.909Z,89.80
2018-03-03T18:36:53.389Z,119.60
2018-03-03T18:39:20.899Z,104.13
2018-03-03T18:41:48.534Z,95.47
2018-03-03T18:44:15.979Z,92.60
2018-03-03T18:46:43.430Z,115.73
2018-03-03T18:49:10.909Z,90.70
2018-03-03T18:51:38.373Z,101.50
2018-03-03T18:54:05.994Z,100.17
2018-03-03T18:56:33.450Z,105.60
2018-03-03T18:59:00.891Z,89.70
2018-03-03T19:01:28.362Z,100.47
2018-03-03T19:03:57.485Z,92.30
2018-03-03T19:06:25.487Z,94.07
2018-03-03T19:08:54.764Z,105.03
2018-03-03T19:11:23.440Z,90.47
2018-03-03T19:13:50.911Z,91.80
2018-03-03T19:16:18.368Z,94.97
2018-03-03T19:18:46.262Z,98.90
2018-03-03T19:21:13.715Z,102.57
2018-03-03T19:23:41.162Z,89.60
2018-03-03T19:26:08.641Z,101.57
2018-03-03T19:28:36.090Z,97.20
2018-03-03T19:31:03.792Z,98.43
2018-03-03T19:33:31.249Z,108.20
2018-03-03T19:35:58.718Z,94.50
2018-03-03T19:38:27.034Z,101.77
2018-03-03T19:40:54.485Z,104.33
2018-03-03T19:43:21.976Z,110.27
2018-03-03T19:45:49.514Z,105.30
2018-03-03T19:48:16.962Z,103.07
2018-03-03T19:50:44.442Z,108.70
2018-03-03T19:53:11.889Z,95.57
2018-03-03T19:55:39.457Z,105.57
2018-03-03T19:58:06.921Z,110.47
2018-03-03T20:00:34.368Z,97.13
2018-03-03T20:03:01.850Z,106.03
2018-03-03T20:05:29.309Z,104.17
2018-03-03T20:07:56.810Z,102.40
2018-03-03T20:10:24.285Z,116.40
2018-03-03T20:12:51.764Z,108.23
2018-03-03T20:15:19.264Z,114.10
2018-03-03T20:17:46.734Z,99.93
2018-03-03T20:20:14.290Z,111.70
2018-03-03T20:22:41.776Z,97.53
2018-03-03T20:25:09.268Z,112.80
2018-03-03T20:27:36.754Z,117.73
2018-03-03T20:30:04.209Z,109.80
2018-03-03T20:32:31.852Z,109.53
2018-03-03T20:34:59.342Z,114.27
2018-03-03T20:37:26.814Z,102.83
2018-03-03T20:39:54.310Z,113.27
2018-03-03T20:42:21.785Z,127.70
2018-03-03T20:44:49.279Z,116.40
2018-03-03T20:47:16.744Z,138.77
2018-03-03T20:49:44.211Z,110.57
2018-03-03T20:52:11.707Z,127.77
2018-03-03T20:54:39.174Z,117.03
2018-03-03T20:57:06.756Z,95.97
2018-03-03T20:59:34.211Z,121.53
2018-03-03T21:02:01.669Z,118.80
2018-03-03T21:04:29.146Z,119.10
2018-03-03T21:06:56.623Z,120.17
2018-03-03T21:09:24.118Z,128.13
2018-03-03T21:11:53.533Z,130.83
2018-03-03T21:14:20.994Z,123.37
2018-03-03T21:16:48.502Z,128.40
2018-03-03T21:19:16.604Z,123.17
2018-03-03T21:21:44.373Z,130.27
2018-03-03T21:24:11.896Z,127.97
2018-03-03T21:26:39.379Z,120.10
2018-03-03T21:29:06.921Z,119.33
2018-03-03T21:31:34.338Z,118.43
2018-03-03T21:34:02.098Z,125.00
2018-03-03T21:36:29.613Z,126.93
2018-03-03T21:38:57.063Z,124.13
2018-03-03T21:41:24.540Z,124.33
2018-03-03T21:43:51.986Z,126.70
2018-03-03T21:46:19.491Z,123.80
2018-03-03T21:48:46.970Z,113.10
2018-03-03T21:51:14.430Z,124.73
2018-03-03T21:53:41.909Z,122.07
2018-03-03T21:56:09.358Z,116.10
2018-03-03T21:58:37.133Z,135.33
2018-03-03T22:01:04.611Z,125.10
2018-03-03T22:03:32.061Z,126.63
2018-03-03T22:05:59.561Z,118.37
2018-03-03T22:08:27.053Z,125.20
2018-03-03T22:10:54.641Z,118.03
2018-03-03T22:13:22.090Z,134.47
2018-03-03T22:15:49.658Z,125.80
2018-03-03T22:18:17.128Z,129.10
2018-03-03T22:20:44.574Z,145.33
2018-03-03T22:23:12.046Z,126.43
2018-03-03T22:25:39.550Z,119.13
2018-03-03T22:28:07.010Z,122.60
2018-03-03T22:30:34.486Z,132.80
2018-03-03T22:33:01.937Z,118.27
2018-03-03T22:35:29.386Z,133.60
2018-03-03T22:37:56.882Z,133.43
2018-03-03T22:40:24.328Z,142.73
2018-03-03T22:42:51.777Z,130.30
2018-03-03T22:45:19.566Z,141.17
2018-03-03T22:47:47.018Z,124.63
2018-03-03T22:50:14.471Z,127.40
2018-03-03T22:52:41.992Z,130.87
2018-03-03T22:55:09.447Z,126.97
2018-03-03T22:57:36.902Z,147.30
2018-03-03T23:00:04.734Z,131.03
2018-03-03T23:02:32.197Z,123.67
2018-03-03T23:04:59.645Z,125.00
2018-03-03T23:07:27.118Z,130.80
2018-03-03T23:09:54.576Z,135.97
2018-03-03T23:12:22.141Z,119.03
2018-03-03T23:14:49.596Z,136.93
2018-03-03T23:17:17.054Z,132.03
2018-03-03T23:19:44.525Z,138.53
2018-03-03T23:22:12.006Z,147.20
2018-03-03T23:24:39.939Z,135.97
2018-03-03T23:27:07.385Z,142.63
2018-03-03T23:29:34.837Z,136.00
2018-03-03T23:32:02.329Z,138.10
2018-03-03T23:34:29.778Z,125.90
2018-03-03T23:36:57.261Z,122.90
2018-03-03T23:39:24.731Z,132.97
2018-03-03T23:41:52.185Z,130.97
2018-03-03T23:44:19.653Z,141.20
2018-03-03T23:46:47.105Z,124.20
2018-03-03T23:49:14.603Z,136.43
2018-03-03T23:51:42.050Z,129.53
2018-03-03T23:54:09.503Z,139.67
2018-03-03T23:56:36.978Z,136.30
2018-03-03T23:59:04.453Z,141.17
